createdAt,value
2023-05-15T00:01:37.462Z,101597.78
2023-05-15T00:04:06.691Z,101594.97
2023-05-15T00:06:34.430Z,101589.97
2023-05-15T00:09:02.749Z,101582.81
2023-05-15T00:11:30.648Z,101582.81
2023-05-15T00:13:58.459Z,101582.81
2023-05-15T00:16:26.246Z,101584.69
2023-05-15T00:18:54.140Z,101585.31
2023-05-15T00:21:23.304Z,101586.19
2023-05-15T00:23:54.005Z,101581.50
2023-05-15T00:26:24.416Z,101576.06
2023-05-15T00:28:53.210Z,101577.44
2023-05-15T00:31:22.097Z,101573.31
2023-05-15T00:33:49.896Z,101567.00
2023-05-15T00:36:17.750Z,101558.31
2023-05-15T00:38:47.007Z,101550.16
2023-05-15T00:41:16.794Z,101547.59
2023-05-15T00:43:44.942Z,101551.75
2023-05-15T00:46:14.120Z,101550.03
2023-05-15T00:48:44.646Z,101553.72
2023-05-15T00:51:13.295Z,101555.75
2023-05-15T00:53:41.700Z,101502.84
2023-05-15T00:56:13.127Z,101545.84
2023-05-15T00:58:41.094Z,101542.25
2023-05-15T01:01:08.955Z,101548.72
2023-05-15T01:03:37.740Z,101545.72
2023-05-15T01:06:06.178Z,101554.25
2023-05-15T01:08:40.771Z,101545.91
2023-05-15T01:11:12.798Z,101552.13
2023-05-15T01:13:40.890Z,101545.47
2023-05-15T01:16:09.951Z,101522.69
2023-05-15T01:18:38.578Z,101551.94
2023-05-15T01:22:01.129Z,101548.75
2023-05-15T01:24:52.119Z,101530.53
2023-05-15T01:27:30.522Z,101541.88
2023-05-15T01:30:06.507Z,101538.31
2023-05-15T01:33:01.229Z,101536.19
2023-05-15T01:35:33.493Z,101542.53
2023-05-15T01:38:14.068Z,101536.72
2023-05-15T01:40:42.812Z,101538.44
2023-05-15T01:43:16.779Z,101542.56
2023-05-15T01:45:46.027Z,101532.25
2023-05-15T01:48:16.448Z,101529.81
2023-05-15T01:50:46.695Z,101534.00
2023-05-15T01:53:16.282Z,101535.59
2023-05-15T01:55:44.720Z,101541.41
2023-05-15T01:58:13.329Z,101539.69
2023-05-15T02:00:42.862Z,101535.13
2023-05-15T02:03:11.300Z,101534.75
2023-05-15T02:05:40.819Z,101531.13
2023-05-15T02:08:09.954Z,101539.44
2023-05-15T02:10:38.241Z,101533.84
2023-05-15T02:13:07.353Z,101537.47
2023-05-15T02:15:36.763Z,101534.97
2023-05-15T02:18:04.981Z,101535.84
2023-05-15T02:20:32.800Z,101531.53
2023-05-15T02:23:01.973Z,101533.50
2023-05-15T02:25:38.606Z,101527.69
2023-05-15T02:28:16.713Z,101536.72
2023-05-15T02:30:50.794Z,101529.84
2023-05-15T02:33:27.012Z,101529.22
2023-05-15T02:35:59.886Z,101524.41
2023-05-15T02:38:32.092Z,101537.09
2023-05-15T02:41:01.742Z,101539.69
2023-05-15T02:43:30.980Z,101538.56
2023-05-15T02:46:00.840Z,101538.84
2023-05-15T02:48:28.902Z,101518.13
2023-05-15T02:50:56.793Z,101521.31
2023-05-15T02:53:24.602Z,101533.16
2023-05-15T02:55:53.687Z,101524.28
2023-05-15T02:58:21.543Z,101528.84
2023-05-15T03:00:49.596Z,101527.09
2023-05-15T03:03:17.636Z,101500.47
2023-05-15T03:05:45.449Z,101519.94
2023-05-15T03:08:13.304Z,101523.41
2023-05-15T03:10:41.022Z,101516.00
2023-05-15T03:13:10.208Z,101503.91
2023-05-15T03:15:38.630Z,101517.84
2023-05-15T03:18:06.611Z,101475.06
2023-05-15T03:20:34.644Z,101496.25
2023-05-15T03:23:02.508Z,101501.78
2023-05-15T03:25:30.328Z,101493.78
2023-05-15T03:27:58.203Z,101506.63
2023-05-15T03:30:27.342Z,101502.81
2023-05-15T03:32:57.342Z,101504.91
2023-05-15T03:35:26.312Z,101499.59
2023-05-15T03:37:54.291Z,101497.13
2023-05-15T03:40:22.134Z,101515.16
2023-05-15T03:42:53.522Z,101512.44
2023-05-15T03:45:21.623Z,101519.69
2023-05-15T03:47:50.905Z,101515.78
2023-05-15T03:50:18.973Z,101518.25
2023-05-15T03:52:46.823Z,101521.53
2023-05-15T03:55:14.692Z,101531.66
2023-05-15T03:57:42.660Z,101525.34
2023-05-15T04:00:12.113Z,101527.84
2023-05-15T04:02:40.618Z,101531.53
2023-05-15T04:05:10.455Z,101530.03
2023-05-15T04:07:38.488Z,101501.53
2023-05-15T04:10:07.220Z,101533.75
2023-05-15T04:12:36.554Z,101534.59
2023-05-15T04:15:18.643Z,101535.34
2023-05-15T04:17:47.734Z,101535.22
2023-05-15T04:20:18.309Z,101537.19
2023-05-15T04:22:46.988Z,101534.25
2023-05-15T04:25:16.260Z,101526.38
2023-05-15T04:27:44.684Z,101514.50
2023-05-15T04:30:13.830Z,101531.19
2023-05-15T04:32:42.375Z,101521.81
2023-05-15T04:35:13.394Z,101510.09
2023-05-15T04:37:45.364Z,101511.97
2023-05-15T04:40:15.010Z,101507.25
2023-05-15T04:42:43.296Z,101514.16
2023-05-15T04:45:11.447Z,101512.06
2023-05-15T04:47:39.419Z,101514.53
2023-05-15T04:50:09.137Z,101517.63
2023-05-15T04:52:37.327Z,101511.59
2023-05-15T04:55:08.202Z,101503.44
2023-05-15T04:57:36.102Z,101516.50
2023-05-15T05:00:05.755Z,101522.28
2023-05-15T05:02:34.165Z,101519.22
2023-05-15T05:05:02.079Z,101509.81
2023-05-15T05:07:30.163Z,101513.25
2023-05-15T05:09:58.080Z,101496.47
2023-05-15T05:12:28.050Z,101518.72
2023-05-15T05:14:56.817Z,101518.91
2023-05-15T05:17:24.801Z,101523.22
2023-05-15T05:19:52.663Z,101526.56
2023-05-15T05:22:20.609Z,101524.59
2023-05-15T05:24:48.511Z,101494.00
2023-05-15T05:27:16.471Z,101525.69
2023-05-15T05:29:46.278Z,101525.34
2023-05-15T05:32:14.167Z,101506.72
2023-05-15T05:34:42.229Z,101522.13
2023-05-15T05:37:10.285Z,101521.88
2023-05-15T05:39:38.090Z,101524.97
2023-05-15T05:42:06.696Z,101525.31
2023-05-15T05:44:37.727Z,101524.59
2023-05-15T05:47:07.378Z,101521.00
2023-05-15T05:49:35.192Z,101523.81
2023-05-15T05:52:11.858Z,101524.44
2023-05-15T05:54:39.618Z,101524.03
2023-05-15T05:57:07.756Z,101524.75
2023-05-15T05:59:37.451Z,101524.53
2023-05-15T06:02:06.928Z,101525.84
2023-05-15T06:04:34.926Z,101518.66
2023-05-15T06:07:04.698Z,101527.13
2023-05-15T06:09:32.924Z,101512.78
2023-05-15T06:12:04.740Z,101519.44
2023-05-15T06:14:32.711Z,101521.22
2023-05-15T06:17:01.454Z,101515.19
2023-05-15T06:19:30.837Z,101516.84
2023-05-15T06:21:58.727Z,101518.59
2023-05-15T06:24:26.906Z,101520.22
2023-05-15T06:26:54.850Z,101524.88
2023-05-15T06:29:22.694Z,101508.75
2023-05-15T06:31:50.495Z,101508.22
2023-05-15T06:34:18.377Z,101513.56
2023-05-15T06:36:47.869Z,101517.72
2023-05-15T06:39:15.770Z,101517.06
2023-05-15T06:41:43.562Z,101517.50
2023-05-15T06:44:11.249Z,101504.53
2023-05-15T06:46:39.068Z,101504.09
2023-05-15T06:49:06.951Z,101505.41
2023-05-15T06:51:34.869Z,101510.03
2023-05-15T06:54:04.829Z,101491.81
2023-05-15T06:56:32.722Z,101497.28
2023-05-15T06:59:00.514Z,101501.31
2023-05-15T07:01:28.320Z,101497.28
2023-05-15T07:03:56.256Z,101502.47
2023-05-15T07:06:24.114Z,101494.88
2023-05-15T07:08:51.891Z,101515.25
2023-05-15T07:11:21.156Z,101507.50
2023-05-15T07:13:50.194Z,101505.38
2023-05-15T07:16:18.574Z,101501.78
2023-05-15T07:18:46.589Z,101509.94
2023-05-15T07:21:14.558Z,101515.25
2023-05-15T07:23:42.410Z,101509.97
2023-05-15T07:26:14.113Z,101507.69
2023-05-15T07:28:46.202Z,101515.13
2023-05-15T07:31:14.157Z,101515.28
2023-05-15T07:33:42.235Z,101515.13
2023-05-15T07:36:10.300Z,101503.63
2023-05-15T07:38:38.095Z,101506.81
2023-05-15T07:41:06.038Z,101511.81
2023-05-15T07:43:33.766Z,101512.69
2023-05-15T07:46:03.035Z,101504.75
2023-05-15T07:48:30.932Z,101501.34
2023-05-15T07:50:58.702Z,101505.06
2023-05-15T07:53:26.551Z,101505.50
2023-05-15T07:55:54.553Z,101505.09
2023-05-15T07:58:23.251Z,101522.59
2023-05-15T08:00:51.151Z,101520.00
2023-05-15T08:03:23.528Z,101508.53
2023-05-15T08:05:52.052Z,101527.31
2023-05-15T08:08:20.185Z,101515.13
2023-05-15T08:10:47.969Z,101523.75
2023-05-15T08:13:15.827Z,101521.59
2023-05-15T08:15:44.388Z,101530.63
2023-05-15T08:18:12.568Z,101518.13
2023-05-15T08:20:41.777Z,101523.19
2023-05-15T08:23:09.607Z,101524.91
2023-05-15T08:25:37.405Z,101519.28
2023-05-15T08:28:05.947Z,101525.31
2023-05-15T08:30:33.796Z,101527.75
2023-05-15T08:33:01.702Z,101524.31
2023-05-15T08:35:29.563Z,101521.47
2023-05-15T08:37:58.993Z,101521.31
2023-05-15T08:40:38.150Z,101524.91
2023-05-15T08:43:15.045Z,101525.91
2023-05-15T08:45:44.098Z,101524.34
2023-05-15T08:48:17.303Z,101521.72
2023-05-15T08:50:45.951Z,101527.19
2023-05-15T08:53:16.214Z,101520.00
2023-05-15T08:55:44.244Z,101529.19
2023-05-15T08:58:12.144Z,101531.38
2023-05-15T09:00:40.041Z,101532.06
2023-05-15T09:03:08.067Z,101533.09
2023-05-15T09:05:37.386Z,101528.06
2023-05-15T09:08:09.336Z,101531.63
2023-05-15T09:10:38.544Z,101532.03
2023-05-15T09:13:08.234Z,101536.34
2023-05-15T09:15:37.297Z,101531.47
2023-05-15T09:18:07.864Z,101528.91
2023-05-15T09:20:37.567Z,101530.06
2023-05-15T09:23:06.615Z,101537.38
2023-05-15T09:25:37.727Z,101536.97
2023-05-15T09:28:07.452Z,101538.56
2023-05-15T09:30:35.586Z,101536.94
2023-05-15T09:33:04.981Z,101536.34
2023-05-15T09:35:34.004Z,101534.50
2023-05-15T09:38:02.927Z,101543.28
2023-05-15T09:40:31.760Z,101535.22
2023-05-15T09:42:59.740Z,101525.00
2023-05-15T09:45:30.367Z,101540.69
2023-05-15T09:48:02.537Z,101534.66
2023-05-15T09:50:34.807Z,101528.75
2023-05-15T09:53:03.226Z,101549.16
2023-05-15T09:55:32.852Z,101538.66
2023-05-15T09:58:08.815Z,101542.41
2023-05-15T10:00:47.980Z,101541.81
2023-05-15T10:03:19.968Z,101533.75
2023-05-15T10:05:48.075Z,101542.09
2023-05-15T10:08:16.214Z,101538.19
2023-05-15T10:10:44.520Z,101552.16
2023-05-15T10:13:12.787Z,101540.09
2023-05-15T10:15:42.721Z,101523.84
2023-05-15T10:18:10.624Z,101546.53
2023-05-15T10:20:39.730Z,101543.19
2023-05-15T10:23:11.726Z,101544.63
2023-05-15T10:25:44.279Z,101544.28
2023-05-15T10:28:13.251Z,101541.13
2023-05-15T10:30:44.204Z,101547.00
2023-05-15T10:33:14.418Z,101547.06
2023-05-15T10:35:43.700Z,101538.97
2023-05-15T10:38:12.742Z,101538.94
2023-05-15T10:40:42.903Z,101538.78
2023-05-15T10:43:12.534Z,101541.44
2023-05-15T10:45:44.518Z,101540.31
2023-05-15T10:48:13.615Z,101538.66
2023-05-15T10:50:41.674Z,101543.22
2023-05-15T10:53:11.096Z,101540.19
2023-05-15T10:55:38.957Z,101540.19
2023-05-15T10:58:10.137Z,101535.75
2023-05-15T11:00:44.868Z,101537.09
2023-05-15T11:03:15.200Z,101540.44
2023-05-15T11:06:08.609Z,101540.72
2023-05-15T11:08:36.883Z,101537.97
2023-05-15T11:11:04.707Z,101536.97
2023-05-15T11:14:12.253Z,101537.56
2023-05-15T11:17:01.256Z,101536.19
2023-05-15T11:19:58.786Z,101540.16
2023-05-15T11:22:31.888Z,101533.19
2023-05-15T11:25:01.626Z,101532.88
2023-05-15T11:27:31.975Z,101535.63
2023-05-15T11:30:14.832Z,101535.19
2023-05-15T11:32:46.670Z,101527.72
2023-05-15T11:35:19.110Z,101540.38
2023-05-15T11:37:49.494Z,101532.56
2023-05-15T11:40:22.414Z,101529.66
2023-05-15T11:43:20.416Z,101524.91
2023-05-15T11:45:49.980Z,101522.63
2023-05-15T11:48:20.724Z,101531.00
2023-05-15T11:50:48.634Z,101531.84
2023-05-15T11:53:16.630Z,101523.03
2023-05-15T11:55:45.955Z,101528.59
2023-05-15T11:58:15.474Z,101523.13
2023-05-15T12:00:43.730Z,101526.22
2023-05-15T12:03:25.636Z,101519.91
2023-05-15T12:05:59.392Z,101529.25
2023-05-15T12:08:32.564Z,101533.03
2023-05-15T12:11:01.112Z,101539.66
2023-05-15T12:13:29.283Z,101533.81
2023-05-15T12:15:57.962Z,101535.59
2023-05-15T12:18:27.268Z,101551.59
2023-05-15T12:20:56.019Z,101549.53
2023-05-15T12:23:25.140Z,101547.97
2023-05-15T12:25:58.377Z,101546.13
2023-05-15T12:28:27.266Z,101549.41
2023-05-15T12:30:55.912Z,101546.78
2023-05-15T12:33:24.495Z,101541.25
2023-05-15T12:35:58.918Z,101544.41
2023-05-15T12:38:28.898Z,101553.00
2023-05-15T12:40:57.211Z,101552.25
2023-05-15T12:43:26.217Z,101549.41
2023-05-15T12:45:54.908Z,101537.47
2023-05-15T12:48:23.440Z,101547.47
2023-05-15T12:50:51.631Z,101556.25
2023-05-15T12:53:23.022Z,101557.25
2023-05-15T12:55:52.265Z,101553.81
2023-05-15T12:58:21.040Z,101561.91
2023-05-15T13:00:50.247Z,101523.28
2023-05-15T13:03:21.501Z,101558.75
2023-05-15T13:05:49.403Z,101560.19
2023-05-15T13:08:18.789Z,101569.50
2023-05-15T13:10:48.733Z,101563.53
2023-05-15T13:13:17.724Z,101571.47
2023-05-15T13:15:46.606Z,101558.47
2023-05-15T13:18:16.118Z,101569.50
2023-05-15T13:20:45.408Z,101567.25
2023-05-15T13:23:16.092Z,101567.03
2023-05-15T13:25:46.360Z,101570.94
2023-05-15T13:28:15.889Z,101570.66
2023-05-15T13:30:44.362Z,101563.69
2023-05-15T13:33:13.628Z,101577.69
2023-05-15T13:35:44.086Z,101583.97
2023-05-15T13:38:12.694Z,101582.66
2023-05-15T13:40:45.490Z,101589.31
2023-05-15T13:43:13.273Z,101590.38
2023-05-15T13:45:42.657Z,101590.25
2023-05-15T13:48:10.565Z,101590.69
2023-05-15T13:50:38.511Z,101592.09
2023-05-15T13:53:06.296Z,101582.94
2023-05-15T13:55:34.254Z,101590.97
2023-05-15T13:58:02.381Z,101587.81
2023-05-15T14:00:30.405Z,101596.16
2023-05-15T14:02:59.753Z,101585.50
2023-05-15T14:05:27.595Z,101581.19
2023-05-15T14:07:57.095Z,101580.91
2023-05-15T14:10:25.286Z,101583.22
2023-05-15T14:12:53.581Z,101567.13
2023-05-15T14:15:21.397Z,101582.34
2023-05-15T14:17:50.680Z,101577.03
2023-05-15T14:20:20.048Z,101581.75
2023-05-15T14:22:47.892Z,101586.22
2023-05-15T14:25:15.690Z,101577.75
2023-05-15T14:27:43.682Z,101593.25
2023-05-15T14:30:12.264Z,101589.25
2023-05-15T14:32:40.129Z,101593.81
2023-05-15T14:35:08.602Z,101581.75
2023-05-15T14:37:38.376Z,101593.25
2023-05-15T14:40:08.107Z,101598.44
2023-05-15T14:42:35.887Z,101590.69
2023-05-15T14:45:05.264Z,101593.97
2023-05-15T14:47:33.818Z,101593.41
2023-05-15T14:50:01.680Z,101592.97
2023-05-15T14:52:29.749Z,101596.72
2023-05-15T14:55:08.576Z,101591.66
2023-05-15T14:57:37.417Z,101595.41
2023-05-15T15:00:06.729Z,101589.09
2023-05-15T15:02:34.878Z,101591.97
2023-05-15T15:05:03.062Z,101597.69
2023-05-15T15:07:31.408Z,101604.88
2023-05-15T15:10:00.769Z,101574.00
2023-05-15T15:12:28.538Z,101596.25
2023-05-15T15:14:56.333Z,101595.69
2023-05-15T15:17:24.116Z,101596.38
2023-05-15T15:19:51.959Z,101596.53
2023-05-15T15:22:19.801Z,101600.41
2023-05-15T15:24:48.057Z,101591.50
2023-05-15T15:27:18.458Z,101594.81
2023-05-15T15:29:46.794Z,101603.28
2023-05-15T15:32:14.709Z,101607.16
2023-05-15T15:34:42.790Z,101607.25
2023-05-15T15:37:11.457Z,101607.69
2023-05-15T15:39:39.256Z,101604.50
2023-05-15T15:42:07.479Z,101597.06
2023-05-15T15:44:36.726Z,101614.09
2023-05-15T15:47:04.855Z,101618.69
2023-05-15T15:49:33.054Z,101613.69
2023-05-15T15:52:01.245Z,101620.41
2023-05-15T15:54:30.272Z,101626.03
2023-05-15T15:56:58.175Z,101625.59
2023-05-15T15:59:26.236Z,101614.03
2023-05-15T16:01:55.712Z,101625.56
2023-05-15T16:04:23.611Z,101629.31
2023-05-15T16:06:51.488Z,101629.22
2023-05-15T16:09:20.319Z,101634.88
2023-05-15T16:11:48.090Z,101638.38
2023-05-15T16:14:15.899Z,101630.31
2023-05-15T16:16:43.728Z,101636.00
2023-05-15T16:19:13.669Z,101641.50
2023-05-15T16:21:41.499Z,101649.50
2023-05-15T16:24:09.336Z,101645.72
2023-05-15T16:26:39.560Z,101646.44
2023-05-15T16:29:07.360Z,101650.66
2023-05-15T16:31:35.306Z,101646.59
2023-05-15T16:34:03.893Z,101650.31
2023-05-15T16:36:33.220Z,101645.31
2023-05-15T16:39:03.088Z,101642.66
2023-05-15T16:41:31.126Z,101655.53
2023-05-15T16:43:58.869Z,101653.13
2023-05-15T16:46:26.674Z,101654.63
2023-05-15T16:48:54.436Z,101656.84
2023-05-15T16:51:22.642Z,101654.78
2023-05-15T16:53:52.716Z,101667.91
2023-05-15T16:56:20.980Z,101659.00
2023-05-15T16:58:48.855Z,101662.91
2023-05-15T17:01:16.721Z,101660.84
2023-05-15T17:03:44.793Z,101662.69
2023-05-15T17:06:12.643Z,101662.22
2023-05-15T17:08:42.627Z,101657.38
2023-05-15T17:11:13.356Z,101669.91
2023-05-15T17:13:41.615Z,101668.53
2023-05-15T17:16:09.768Z,101673.00
2023-05-15T17:18:39.967Z,101690.16
2023-05-15T17:21:08.002Z,101683.25
2023-05-15T17:23:36.139Z,101693.28
2023-05-15T17:26:04.363Z,101691.28
2023-05-15T17:28:35.780Z,101699.47
2023-05-15T17:31:10.434Z,101683.63
2023-05-15T17:33:38.279Z,101695.59
2023-05-15T17:36:06.339Z,101683.16
2023-05-15T17:38:34.239Z,101692.06
2023-05-15T17:41:02.134Z,101685.25
2023-05-15T17:43:29.941Z,101716.88
2023-05-15T17:46:00.422Z,101708.47
2023-05-15T17:48:28.458Z,101715.41
2023-05-15T17:50:56.302Z,101714.56
2023-05-15T17:53:24.534Z,101721.72
2023-05-15T17:55:52.494Z,101721.22
2023-05-15T17:58:21.231Z,101727.03
2023-05-15T18:00:49.048Z,101728.28
2023-05-15T18:03:21.131Z,101741.00
2023-05-15T18:05:49.178Z,101738.28
2023-05-15T18:08:16.975Z,101740.25
2023-05-15T18:10:45.053Z,101735.16
2023-05-15T18:13:12.845Z,101737.28
2023-05-15T18:15:40.742Z,101733.06
2023-05-15T18:18:08.683Z,101747.28
2023-05-15T18:20:37.918Z,101746.53
2023-05-15T18:23:05.769Z,101752.63
2023-05-15T18:25:36.745Z,101754.34
2023-05-15T18:28:04.694Z,101753.97
2023-05-15T18:30:32.489Z,101760.78
2023-05-15T18:33:00.376Z,101754.94
2023-05-15T18:35:28.417Z,101768.19
2023-05-15T18:37:57.948Z,101767.81
2023-05-15T18:40:26.492Z,101753.56
2023-05-15T18:42:55.374Z,101778.66
2023-05-15T18:45:24.035Z,101781.63
2023-05-15T18:47:52.992Z,101780.28
2023-05-15T18:50:21.036Z,101781.63
2023-05-15T18:52:48.989Z,101782.97
2023-05-15T18:55:18.234Z,101775.94
2023-05-15T18:57:46.041Z,101780.91
2023-05-15T19:00:18.923Z,101765.63
2023-05-15T19:02:51.735Z,101782.28
2023-05-15T19:05:19.953Z,101789.53
2023-05-15T19:07:47.993Z,101792.66
2023-05-15T19:10:16.017Z,101806.72
2023-05-15T19:12:45.400Z,101795.09
2023-05-15T19:15:14.001Z,101804.84
2023-05-15T19:17:42.377Z,101792.69
2023-05-15T19:20:11.129Z,101806.28
2023-05-15T19:22:38.937Z,101803.81
2023-05-15T19:25:07.874Z,101818.25
2023-05-15T19:27:35.923Z,101804.06
2023-05-15T19:30:07.021Z,101811.16
2023-05-15T19:32:35.432Z,101811.06
2023-05-15T19:35:03.574Z,101780.66
2023-05-15T19:37:31.390Z,101807.25
2023-05-15T19:39:59.295Z,101814.25
2023-05-15T19:42:27.192Z,101815.22
2023-05-15T19:44:55.026Z,101806.22
2023-05-15T19:47:24.234Z,101827.03
2023-05-15T19:49:52.062Z,101825.00
2023-05-15T19:52:20.838Z,101837.75
2023-05-15T19:54:48.668Z,101828.91
2023-05-15T19:57:16.536Z,101831.81
2023-05-15T19:59:44.411Z,101838.72
2023-05-15T20:02:12.337Z,101830.84
2023-05-15T20:04:41.611Z,101848.50
2023-05-15T20:07:09.399Z,101817.47
2023-05-15T20:09:39.395Z,101857.34
2023-05-15T20:12:08.220Z,101847.69
2023-05-15T20:14:36.448Z,101852.47
2023-05-15T20:17:04.739Z,101861.00
2023-05-15T20:19:32.611Z,101869.66
2023-05-15T20:22:01.775Z,101864.78
2023-05-15T20:24:30.336Z,101877.81
2023-05-15T20:26:58.440Z,101868.59
2023-05-15T20:29:26.539Z,101875.00
2023-05-15T20:31:54.413Z,101890.09
2023-05-15T20:34:23.365Z,101889.97
2023-05-15T20:36:52.638Z,101894.84
2023-05-15T20:39:21.849Z,101897.78
2023-05-15T20:41:50.179Z,101892.59
2023-05-15T20:44:18.137Z,101904.31
2023-05-15T20:46:45.967Z,101892.22
2023-05-15T20:49:13.762Z,101891.56
2023-05-15T20:51:44.505Z,101906.44
2023-05-15T20:54:12.345Z,101899.78
2023-05-15T20:56:41.876Z,101903.34
2023-05-15T20:59:09.737Z,101904.63
2023-05-15T21:01:37.657Z,101915.31
2023-05-15T21:04:05.639Z,101912.59
2023-05-15T21:06:33.589Z,101911.50
2023-05-15T21:09:01.377Z,101894.53
2023-05-15T21:11:30.147Z,101914.38
2023-05-15T21:13:59.293Z,101910.66
2023-05-15T21:16:27.177Z,101912.53
2023-05-15T21:18:54.957Z,101917.41
2023-05-15T21:21:22.792Z,101908.31
2023-05-15T21:23:50.621Z,101923.81
2023-05-15T21:26:18.484Z,101916.25
2023-05-15T21:28:46.299Z,101923.09
2023-05-15T21:31:15.496Z,101924.13
2023-05-15T21:33:43.393Z,101925.34
2023-05-15T21:36:11.305Z,101919.81
2023-05-15T21:38:39.130Z,101935.75
2023-05-15T21:41:06.955Z,101928.81
2023-05-15T21:43:34.756Z,101936.22
2023-05-15T21:46:02.543Z,101943.38
2023-05-15T21:48:31.742Z,101937.19
2023-05-15T21:50:59.711Z,101935.22
2023-05-15T21:53:27.809Z,101941.19
2023-05-15T21:56:00.440Z,101929.81
2023-05-15T21:58:28.501Z,101948.78
2023-05-15T22:00:56.593Z,101945.84
2023-05-15T22:03:24.810Z,101942.59
2023-05-15T22:05:54.172Z,101947.78
2023-05-15T22:08:22.260Z,101945.53
2023-05-15T22:10:50.589Z,101946.63
2023-05-15T22:13:21.357Z,101958.88
2023-05-15T22:15:49.235Z,101946.28
2023-05-15T22:18:17.187Z,101951.19
2023-05-15T22:20:45.757Z,101960.28
2023-05-15T22:23:14.868Z,101962.22
2023-05-15T22:25:42.772Z,101954.78
2023-05-15T22:28:12.345Z,101947.50
2023-05-15T22:30:40.349Z,101926.00
2023-05-15T22:33:08.198Z,101958.78
2023-05-15T22:35:36.114Z,101960.16
2023-05-15T22:38:05.712Z,101963.19
2023-05-15T22:40:34.855Z,101964.75
2023-05-15T22:43:02.685Z,101962.16
2023-05-15T22:45:30.457Z,101956.69
2023-05-15T22:47:58.395Z,101965.38
2023-05-15T22:50:26.666Z,101973.72
2023-05-15T22:52:54.856Z,101973.63
2023-05-15T22:55:22.820Z,101972.75
2023-05-15T22:57:52.005Z,101976.63
2023-05-15T23:00:20.265Z,101961.22
2023-05-15T23:02:48.219Z,101982.50
2023-05-15T23:05:16.271Z,101984.88
2023-05-15T23:07:44.028Z,101990.44
2023-05-15T23:10:12.234Z,101983.56
2023-05-15T23:12:40.600Z,101983.88
2023-05-15T23:15:11.389Z,101982.91
2023-05-15T23:17:39.490Z,101989.72
2023-05-15T23:20:10.451Z,101988.97
2023-05-15T23:22:38.663Z,101987.91
2023-05-15T23:25:07.784Z,101994.03
2023-05-15T23:27:35.526Z,101998.81
2023-05-15T23:30:03.393Z,101999.28
2023-05-15T23:32:32.580Z,101978.13
2023-05-15T23:35:00.412Z,101999.19
2023-05-15T23:37:28.171Z,101988.97
2023-05-15T23:39:56.030Z,101995.69
2023-05-15T23:42:24.456Z,101978.13
2023-05-15T23:44:52.220Z,102002.00
2023-05-15T23:47:19.936Z,101995.69
2023-05-15T23:49:49.248Z,101997.44
2023-05-15T23:52:16.994Z,101976.16
2023-05-15T23:54:44.787Z,101986.66
2023-05-15T23:57:12.554Z,101994.03
2023-05-15T23:59:40.383Z,102003.69
